This is the latest recevied weather packets stored in our database for station/object N1HRK. If no packets are shown the sender has not sent any weather packets the latest 10 day(s).
| Time | Temp. | Humidity | Pressure | Rain* | Wind** | Luminosity | Snow |
|---|---|---|---|---|---|---|---|
| 1778008924 | 17.78° C | 63% | 1009.7 hPa | 0 mm | - | - | - |
| 1778008324 | 17.78° C | 63% | 1009.7 hPa | 0 mm | - | - | - |
| 1778007724 | 17.78° C | 63% | 1009.9 hPa | 0 mm | - | - | - |
| 1778007124 | 17.78° C | 64% | 1009.9 hPa | 0 mm | - | - | - |
| 1778006524 | 17.78° C | 61% | 1009.9 hPa | 0 mm | - | - | - |
| 1778005924 | 17.22° C | 64% | 1010.1 hPa | 0 mm | - | - | - |
| 1778005324 | 16.67° C | 66% | 1010.2 hPa | 0 mm | - | - | - |
| 1778004722 | 17.78° C | 62% | 1010.3 hPa | 0 mm | - | - | - |
| 1778004155 | 18.33° C | 60% | 1010.2 hPa | 0 mm | - | - | - |
| 1778004124 | 18.33° C | 60% | 1010.2 hPa | 0 mm | - | - | - |
| 1778003523 | 18.33° C | 60% | 1010.3 hPa | 0 mm | - | - | - |
| 1778002923 | 18.89° C | 59% | 1010.4 hPa | 0 mm | - | - | - |
| 1778002323 | 18.89° C | 60% | 1010.5 hPa | 0 mm | - | - | - |
| 1778001723 | 18.89° C | 61% | 1010.5 hPa | 0 mm | - | - | - |
| 1778001123 | 18.89° C | 61% | 1010.6 hPa | 0 mm | - | - | - |
| 1778000523 | 17.78° C | 60% | 1010.5 hPa | 0 mm | - | - | - |
| 1777999954 | 18.33° C | 58% | 1010.6 hPa | 0 mm | - | - | - |
| 1777999923 | 19.44° C | 57% | 1010.6 hPa | 0 mm | - | - | - |
| 1777999324 | 18.89° C | 60% | 1010.7 hPa | 0 mm | - | - | - |
| 1777998753 | 18.89° C | 62% | 1011 hPa | 0 mm | - | - | - |
| 1777998723 | 18.33° C | 62% | 1011.1 hPa | 0 mm | - | - | - |
| 1777998154 | 18.89° C | 60% | 1011.1 hPa | 0 mm | - | - | - |
| 1777998123 | 18.33° C | 61% | 1011.1 hPa | 0 mm | - | - | - |
| 1777997552 | 17.78° C | 62% | 1011.2 hPa | 0 mm | - | - | - |
| 1777997522 | 17.78° C | 63% | 1011.2 hPa | 0 mm | - | - | - |
* Rain latest hour (hover to see other rain measurements)
** Current wind speed in m/s (hover to see current wind gust speed)